Time;durP1;ratioP1;P1;durP2;ratioP2;P2;SDS_P1;SDS_P2;PMS_P1;PMS_P2;Temp;Humidity;BMP_temperature;BMP_pressure;BME280_temperature;BME280_humidity;BME280_pressure;Samples;Min_cycle;Max_cycle;Signal;HPM_P1;HPM_P2
2022/05/02 00:02:25;;;;;;;7.10;3.60;;;;;;;12.65;50.85;99857.03;25200;1315;3026808;-66
2022/05/02 00:04:57;;;;;;;6.70;3.60;;;;;;;12.65;50.78;99855.45;25775;1313;3056220;-66
2022/05/02 00:07:27;;;;;;;6.40;3.70;;;;;;;12.64;51.16;99858.30;25860;1313;3028832;-65
2022/05/02 00:09:58;;;;;;;8.60;3.80;;;;;;;12.60;51.67;99855.38;25832;1313;3053424;-64
2022/05/02 00:12:27;;;;;;;6.80;4.20;;;;;;;12.57;51.27;99854.65;25161;1315;3026438;-69
2022/05/02 00:14:57;;;;;;;10.50;5.00;;;;;;;12.48;51.79;99844.70;25148;1315;3054834;-67
2022/05/02 00:20:14;;;;;;;10.40;4.80;;;;;;;12.39;52.26;99847.89;25168;1313;3056693;-66
2022/05/02 00:22:45;;;;;;;9.20;5.00;;;;;;;12.42;51.69;99849.09;25065;1317;3027215;-70
2022/05/02 00:25:14;;;;;;;12.70;4.70;;;;;;;12.44;51.86;99849.70;25137;1315;3029922;-67
2022/05/02 00:27:43;;;;;;;13.80;4.80;;;;;;;12.45;51.72;99849.86;25094;1315;3026915;-67
2022/05/02 00:30:13;;;;;;;14.20;5.20;;;;;;;12.46;51.39;99849.94;25134;1315;3049331;-68
2022/05/02 00:32:43;;;;;;;13.20;4.80;;;;;;;12.43;51.89;99853.81;25100;1313;3027054;-66
2022/05/02 00:35:12;;;;;;;12.10;4.90;;;;;;;12.31;52.43;99854.58;25129;1315;3026778;-69
2022/05/02 00:37:42;;;;;;;9.40;5.30;;;;;;;12.24;52.69;99850.57;25143;1315;3048742;-66
2022/05/02 00:40:12;;;;;;;15.20;5.10;;;;;;;12.15;53.86;99851.64;25122;1313;3026777;-69
2022/05/02 00:42:43;;;;;;;11.40;5.30;;;;;;;12.18;53.40;99857.46;25146;1315;3026763;-67
2022/05/02 00:45:14;;;;;;;10.50;5.30;;;;;;;12.19;53.78;99857.55;25156;1313;3027382;-68
2022/05/02 00:47:57;;;;;;;9.20;6.00;;;;;;;12.17;53.95;99858.23;25143;1313;3027071;-71
2022/05/02 00:50:32;;;;;;;14.00;6.30;;;;;;;12.14;54.14;99854.19;25164;1313;3052629;-67
2022/05/02 00:53:05;;;;;;;12.10;6.30;;;;;;;12.12;54.36;99857.27;25155;1313;3053069;-68
2022/05/02 00:55:34;;;;;;;10.30;5.70;;;;;;;12.12;54.14;99855.70;25141;1313;3026720;-66
2022/05/02 00:58:03;;;;;;;12.80;6.30;;;;;;;12.12;54.53;99856.74;25138;1313;3026545;-68
2022/05/02 01:00:36;;;;;;;12.50;6.70;;;;;;;12.11;54.52;99857.50;25120;1313;3026793;-68
2022/05/02 01:03:06;;;;;;;13.00;7.10;;;;;;;12.09;54.81;99852.39;25153;1315;3026634;-65
2022/05/02 01:08:32;;;;;;;12.70;6.80;;;;;;;12.06;55.12;99855.50;25073;1315;3051947;-66
2022/05/02 01:11:01;;;;;;;13.40;6.70;;;;;;;12.07;54.95;99853.70;25144;1315;3026820;-68
2022/05/02 01:13:38;;;;;;;16.60;8.20;;;;;;;12.01;55.37;99853.38;25142;1315;3026374;-69
2022/05/02 01:16:17;;;;;;;17.20;7.40;;;;;;;11.99;55.55;99850.35;25116;1315;3059546;-69
2022/05/02 01:18:48;;;;;;;16.00;7.10;;;;;;;12.00;55.66;99852.34;25124;1313;3050007;-64
2022/05/02 01:21:21;;;;;;;16.30;7.00;;;;;;;12.01;55.65;99850.89;25123;1313;3026516;-68
2022/05/02 01:24:00;;;;;;;12.50;7.50;;;;;;;12.00;55.82;99854.11;25153;1313;3051252;-65
2022/05/02 01:26:29;;;;;;;15.90;7.30;;;;;;;12.02;55.93;99856.31;25109;1313;3069255;-69
2022/05/02 01:28:59;;;;;;;15.70;7.20;;;;;;;12.03;55.72;99857.27;25166;1313;3026462;-66
2022/05/02 01:31:28;;;;;;;17.50;7.60;;;;;;;12.04;55.73;99856.71;25153;1313;3029342;-67
2022/05/02 01:33:59;;;;;;;15.70;7.90;;;;;;;12.05;55.87;99855.45;25167;1313;3027637;-65
2022/05/02 01:36:28;;;;;;;12.20;8.00;;;;;;;12.06;55.92;99851.49;25155;1313;3026985;-68
2022/05/02 01:38:57;;;;;;;17.90;8.20;;;;;;;12.08;55.84;99849.80;25089;1313;3028508;-68
2022/05/02 01:41:26;;;;;;;22.30;8.50;;;;;;;12.07;56.12;99846.73;25148;1313;3051908;-65
2022/05/02 01:43:56;;;;;;;15.70;7.90;;;;;;;12.05;56.74;99848.73;25137;1314;3026672;-67
2022/05/02 01:46:25;;;;;;;14.30;8.10;;;;;;;12.04;56.92;99846.68;25110;1315;3026537;-68
2022/05/02 01:48:55;;;;;;;17.70;8.00;;;;;;;12.03;57.26;99847.14;25160;1313;3054398;-69
2022/05/02 01:51:24;;;;;;;14.70;8.00;;;;;;;12.01;57.47;99845.84;25149;1315;3026429;-69
2022/05/02 01:53:53;;;;;;;14.20;8.10;;;;;;;11.98;57.79;99843.38;25082;1315;3026206;-66
2022/05/02 01:56:22;;;;;;;21.50;8.10;;;;;;;11.95;57.84;99846.34;25158;1315;3026204;-67
2022/05/02 01:58:52;;;;;;;18.70;8.80;;;;;;;11.95;58.18;99843.02;25145;1315;3058541;-65
2022/05/02 02:01:22;;;;;;;15.90;9.20;;;;;;;11.94;58.65;99843.59;25121;1313;3027434;-66
2022/05/02 02:03:51;;;;;;;18.10;9.50;;;;;;;11.94;58.73;99846.55;25210;1313;3026260;-66
2022/05/02 02:06:21;;;;;;;16.50;9.40;;;;;;;11.94;58.93;99847.97;25126;1313;3055631;-66
2022/05/02 02:08:51;;;;;;;14.70;8.60;;;;;;;11.91;59.58;99848.30;25143;1315;3026860;-67
2022/05/02 02:11:21;;;;;;;15.60;8.50;;;;;;;11.90;59.46;99850.84;25225;1313;3026668;-67
2022/05/02 02:13:50;;;;;;;19.60;9.80;;;;;;;11.84;59.93;99848.91;25140;1315;3026289;-68
2022/05/02 02:16:18;;;;;;;20.10;9.10;;;;;;;11.81;59.98;99851.89;25161;1313;3052238;-66
2022/05/02 02:18:47;;;;;;;18.70;9.10;;;;;;;11.79;59.98;99855.52;25177;1313;3027100;-69
2022/05/02 02:21:17;;;;;;;18.70;9.30;;;;;;;11.79;59.84;99853.93;25140;1314;3058286;-66
2022/05/02 02:23:46;;;;;;;20.90;9.40;;;;;;;11.76;59.96;99856.05;25149;1313;3027647;-67
2022/05/02 02:26:16;;;;;;;17.60;8.90;;;;;;;11.74;60.03;99857.23;25138;1315;3026429;-67
2022/05/02 02:28:45;;;;;;;15.10;8.70;;;;;;;11.74;60.35;99853.69;25132;1313;3027438;-66
2022/05/02 02:31:15;;;;;;;14.60;9.10;;;;;;;11.72;60.49;99857.66;25119;1313;3026698;-66
2022/05/02 02:33:44;;;;;;;21.40;9.60;;;;;;;11.73;60.54;99853.44;25154;1313;3055220;-68
2022/05/02 02:36:13;;;;;;;19.00;9.20;;;;;;;11.77;60.13;99853.36;25119;1315;3026711;-65
2022/05/02 02:38:42;;;;;;;18.30;9.10;;;;;;;11.81;59.89;99853.65;25125;1313;3026383;-68
2022/05/02 02:41:11;;;;;;;21.80;10.90;;;;;;;11.83;59.71;99857.59;25165;1313;3055177;-66
2022/05/02 02:43:40;;;;;;;17.50;9.60;;;;;;;11.83;59.58;99856.88;25158;1313;3026206;-69
2022/05/02 02:46:09;;;;;;;14.10;8.20;;;;;;;11.84;59.26;99855.92;25113;1313;3026791;-68
2022/05/02 02:48:38;;;;;;;15.70;7.90;;;;;;;11.87;58.75;99859.77;25136;1315;3055241;-66
2022/05/02 02:51:07;;;;;;;15.20;9.10;;;;;;;11.90;58.52;99859.45;25117;1313;3027212;-66
2022/05/02 02:53:37;;;;;;;13.90;7.40;;;;;;;11.91;57.92;99859.39;25116;1313;3051571;-68
2022/05/02 02:56:06;;;;;;;14.00;7.20;;;;;;;11.92;57.93;99860.73;25148;1313;3026474;-67
2022/05/02 02:58:35;;;;;;;10.90;7.20;;;;;;;11.91;57.69;99861.28;25116;1313;3061200;-65
2022/05/02 03:01:12;;;;;;;14.30;7.30;;;;;;;11.90;58.01;99861.88;25154;1313;3049068;-67
2022/05/02 03:03:42;;;;;;;13.60;6.90;;;;;;;11.86;57.96;99863.38;25139;1313;3026114;-68
2022/05/02 03:06:11;;;;;;;10.80;6.80;;;;;;;11.85;57.65;99864.83;25123;1313;3028859;-67
2022/05/02 03:08:41;;;;;;;16.50;8.30;;;;;;;11.81;58.18;99863.66;25106;1315;3051308;-68
2022/05/02 03:11:11;;;;;;;14.90;7.80;;;;;;;11.86;58.23;99868.96;25154;1315;3029955;-67
2022/05/02 03:13:42;;;;;;;17.80;8.50;;;;;;;11.82;58.96;99872.39;25137;1313;3027516;-67
2022/05/02 03:16:11;;;;;;;18.00;8.40;;;;;;;11.72;59.08;99871.77;25151;1313;3027372;-67
2022/05/02 03:18:40;;;;;;;22.90;8.60;;;;;;;11.65;59.09;99871.63;25168;1313;3055977;-69
2022/05/02 03:21:09;;;;;;;15.10;8.30;;;;;;;11.59;59.38;99872.48;25115;1315;3026435;-65
2022/05/02 03:23:38;;;;;;;14.80;7.30;;;;;;;11.55;59.43;99878.19;25146;1318;3026817;-66
2022/05/02 03:26:08;;;;;;;12.00;7.20;;;;;;;11.54;59.41;99876.79;25139;1313;3055251;-69
2022/05/02 03:28:37;;;;;;;14.20;8.60;;;;;;;11.57;59.32;99879.95;25117;1313;3027617;-69
2022/05/02 03:31:07;;;;;;;13.50;7.10;;;;;;;11.60;59.24;99881.02;25118;1313;3026515;-66
2022/05/02 03:33:36;;;;;;;17.10;6.90;;;;;;;11.59;58.92;99880.73;25166;1313;3026494;-68
2022/05/02 03:36:06;;;;;;;12.10;6.10;;;;;;;11.54;59.17;99879.42;25145;1313;3050459;-67
2022/05/02 03:38:35;;;;;;;13.80;5.90;;;;;;;11.55;59.22;99881.13;25183;1313;3026542;-67
2022/05/02 03:41:04;;;;;;;12.70;5.90;;;;;;;11.58;59.14;99881.64;25137;1313;3026478;-66
2022/05/02 03:43:34;;;;;;;12.70;6.00;;;;;;;11.60;59.03;99881.17;25128;1313;3051134;-66
2022/05/02 03:46:03;;;;;;;12.90;6.20;;;;;;;11.61;59.23;99884.52;25132;1313;3029074;-67
2022/05/02 03:48:34;;;;;;;11.90;6.10;;;;;;;11.59;59.27;99881.44;25162;1313;3026144;-68
2022/05/02 03:51:04;;;;;;;11.20;6.20;;;;;;;11.62;58.97;99883.05;25127;1313;3051451;-66
2022/05/02 03:53:32;;;;;;;10.10;5.90;;;;;;;11.65;58.82;99881.58;25150;1313;3026666;-66
2022/05/02 03:56:01;;;;;;;9.20;5.70;;;;;;;11.68;58.62;99881.13;25111;1315;3054978;-66
2022/05/02 03:58:30;;;;;;;10.40;5.10;;;;;;;11.64;58.57;99880.48;25139;1313;3026655;-68
2022/05/02 04:01:00;;;;;;;9.00;5.00;;;;;;;11.63;58.38;99879.63;25088;1318;3048488;-65
2022/05/02 04:03:29;;;;;;;15.60;5.90;;;;;;;11.66;58.09;99880.29;25124;1314;3027338;-67
2022/05/02 04:05:58;;;;;;;10.70;5.50;;;;;;;11.68;58.08;99884.06;25170;1315;3026327;-65
2022/05/02 04:08:28;;;;;;;7.50;4.80;;;;;;;11.68;58.22;99879.70;25147;1315;3049454;-66
2022/05/02 04:10:58;;;;;;;7.90;4.50;;;;;;;11.71;57.97;99879.48;25141;1315;3026872;-66
2022/05/02 04:13:27;;;;;;;14.40;4.50;;;;;;;11.75;57.72;99882.23;25115;1313;3026055;-66
2022/05/02 04:15:56;;;;;;;8.80;4.30;;;;;;;11.80;57.45;99883.20;25149;1315;3050068;-65
2022/05/02 04:18:25;;;;;;;8.60;4.00;;;;;;;11.85;56.90;99886.05;25104;1313;3026830;-68
2022/05/02 04:20:55;;;;;;;9.90;4.20;;;;;;;11.87;56.78;99892.46;25190;1313;3058154;-67
2022/05/02 04:23:24;;;;;;;9.30;4.70;;;;;;;11.90;56.88;99891.58;25124;1315;3026439;-65
2022/05/02 04:25:53;;;;;;;10.30;4.50;;;;;;;11.95;56.68;99897.27;25141;1313;3051789;-67
2022/05/02 04:28:22;;;;;;;8.20;4.00;;;;;;;12.00;56.23;99898.55;25151;1315;3026795;-65
2022/05/02 04:30:51;;;;;;;12.00;4.10;;;;;;;12.05;56.10;99899.14;25119;1313;3052701;-69
2022/05/02 04:33:20;;;;;;;12.10;4.60;;;;;;;12.09;55.67;99902.56;25162;1313;3026869;-68
2022/05/02 04:35:49;;;;;;;11.90;4.80;;;;;;;12.14;55.35;99901.02;25550;1313;3047896;-64
2022/05/02 04:38:18;;;;;;;14.00;4.60;;;;;;;12.19;55.03;99900.77;25674;1316;3026780;-65
2022/05/02 04:40:48;;;;;;;8.10;4.30;;;;;;;12.24;54.93;99903.78;25702;1313;3068874;-67
2022/05/02 04:43:17;;;;;;;13.10;4.90;;;;;;;12.29;54.55;99900.00;25359;1313;3028214;-68
2022/05/02 04:45:46;;;;;;;19.30;7.30;;;;;;;12.34;54.46;99899.69;25175;1315;3050172;-68
2022/05/02 04:48:16;;;;;;;29.90;5.40;;;;;;;12.40;54.04;99901.58;25107;1313;3026833;-69
2022/05/02 04:50:44;;;;;;;11.80;4.20;;;;;;;12.47;53.41;99898.39;25191;1313;3026844;-68
2022/05/02 04:53:14;;;;;;;7.80;3.90;;;;;;;12.51;52.93;99896.52;25097;1313;3053415;-66
2022/05/02 04:55:42;;;;;;;9.10;4.70;;;;;;;12.55;52.72;99892.59;24859;1315;3026785;-67
2022/05/02 04:58:11;;;;;;;11.00;5.10;;;;;;;12.59;52.59;99899.19;25131;1315;3026355;-68
2022/05/02 05:00:41;;;;;;;10.30;4.70;;;;;;;12.65;52.71;99894.42;25140;1313;3055227;-68
2022/05/02 05:03:10;;;;;;;13.00;4.60;;;;;;;12.70;52.26;99896.94;25107;1315;3030501;-68
2022/05/02 05:05:40;;;;;;;10.70;4.60;;;;;;;12.72;51.83;99897.14;25146;1315;3027176;-68
2022/05/02 05:08:09;;;;;;;15.70;5.00;;;;;;;12.77;51.95;99894.91;25143;1315;3026746;-66
2022/05/02 05:10:46;;;;;;;11.50;5.10;;;;;;;12.83;52.10;99892.11;25156;1313;3069059;-68
2022/05/02 05:13:19;;;;;;;13.60;5.40;;;;;;;12.85;52.48;99893.91;25107;1315;3051745;-70
2022/05/02 05:16:24;;;;;;;19.70;5.60;;;;;;;12.90;52.31;99896.73;25131;1313;3026425;-66
2022/05/02 05:18:53;;;;;;;;;;;;;;;12.87;52.70;99891.48;25081;1315;3069213;-67
2022/05/02 05:21:40;;;;;;;14.00;5.70;;;;;;;12.88;52.79;99894.42;25135;1313;3028039;-66
2022/05/02 05:24:38;;;;;;;13.40;5.90;;;;;;;12.93;52.50;99895.65;25156;1313;3051689;-69
2022/05/02 05:27:40;;;;;;;8.10;5.40;;;;;;;13.00;52.06;99897.84;25159;1315;3068354;-65
2022/05/02 05:30:09;;;;;;;9.90;6.10;;;;;;;13.04;52.23;99901.12;25105;1318;3049063;-69
2022/05/02 05:32:57;;;;;;;12.30;5.60;;;;;;;13.11;51.69;99902.05;25169;1315;3026671;-69
2022/05/02 05:35:45;;;;;;;12.50;6.10;;;;;;;13.21;51.08;99900.58;25142;1313;3068329;-67
2022/05/02 05:38:43;;;;;;;11.80;5.90;;;;;;;13.33;50.53;99905.23;25155;1313;3052171;-66
2022/05/02 05:41:37;;;;;;;27.00;6.60;;;;;;;13.37;50.47;99907.46;25149;1313;3050737;-67
2022/05/02 05:44:37;;;;;;;11.40;5.80;;;;;;;13.48;50.38;99909.39;25180;1313;3055822;-67
2022/05/02 05:47:23;;;;;;;12.60;5.00;;;;;;;13.49;50.51;99909.90;25145;1313;3059444;-65
2022/05/02 05:49:55;;;;;;;9.30;6.00;;;;;;;13.49;50.61;99907.41;25184;1315;3053369;-68
2022/05/02 05:53:02;;;;;;;13.10;5.20;;;;;;;13.56;50.23;99909.95;25162;1315;3028356;-68
2022/05/02 05:55:46;;;;;;;10.60;5.10;;;;;;;13.58;49.52;99906.25;25041;1315;3050958;-68
2022/05/02 05:58:36;;;;;;;;;;;;;;;13.59;49.31;99906.73;25186;1315;3071511;-66
2022/05/02 06:01:19;;;;;;;13.60;5.50;;;;;;;13.46;48.38;99904.77;25117;1313;3052250;-67
2022/05/02 06:04:07;;;;;;;12.60;5.50;;;;;;;13.47;47.37;99903.49;25165;1313;3054842;-67
2022/05/02 06:06:37;;;;;;;11.20;5.20;;;;;;;13.51;46.95;99905.86;25171;1313;3053292;-67
2022/05/02 06:09:06;;;;;;;11.90;5.60;;;;;;;13.58;46.33;99908.59;25146;1315;3026525;-68
2022/05/02 06:11:35;;;;;;;12.50;5.90;;;;;;;13.62;46.80;99908.31;25086;1315;3026638;-68
2022/05/02 06:14:04;;;;;;;13.80;5.60;;;;;;;13.67;46.91;99907.81;25171;1313;3052289;-66
2022/05/02 06:19:25;;;;;;;11.40;5.30;;;;;;;13.87;46.67;99904.16;25114;1313;3054876;-67
2022/05/02 06:21:55;;;;;;;13.90;6.50;;;;;;;14.04;46.25;99903.54;25130;1315;3026040;-69
2022/05/02 06:24:28;;;;;;;11.30;6.30;;;;;;;14.18;45.57;99902.08;25175;1313;3026503;-67
2022/05/02 06:26:57;;;;;;;19.30;7.10;;;;;;;14.32;45.24;99901.66;25168;1313;3026672;-70
2022/05/02 06:29:26;;;;;;;15.80;7.60;;;;;;;14.44;43.62;99900.48;25104;1316;3026878;-66
2022/05/02 06:31:56;;;;;;;18.30;7.00;;;;;;;14.55;43.70;99894.58;25128;1314;3055533;-67
2022/05/02 06:34:29;;;;;;;17.10;6.80;;;;;;;14.72;43.86;99895.55;25137;1313;3026647;-68
2022/05/02 06:37:05;;;;;;;18.00;7.00;;;;;;;14.92;43.21;99896.09;25145;1313;3055820;-70
2022/05/02 06:40:03;;;;;;;18.60;7.50;;;;;;;15.02;42.82;99899.42;25157;1313;3051641;-65
2022/05/02 06:42:38;;;;;;;14.60;6.90;;;;;;;15.08;42.59;99898.98;25135;1313;3071083;-63
2022/05/02 06:45:26;;;;;;;18.20;7.20;;;;;;;15.20;42.80;99896.69;25117;1314;3049309;-68
2022/05/02 06:48:17;;;;;;;19.20;7.00;;;;;;;15.27;43.92;99900.98;25151;1313;3052288;-66
2022/05/02 06:50:48;;;;;;;17.90;6.30;;;;;;;15.30;44.65;99902.19;25144;1313;3055161;-68
2022/05/02 06:53:39;;;;;;;17.70;7.30;;;;;;;15.31;44.50;99902.98;25135;1315;3026485;-67
2022/05/02 06:56:15;;;;;;;16.50;6.30;;;;;;;15.38;44.42;99902.59;25115;1315;3050315;-65
2022/05/02 06:59:22;;;;;;;25.60;7.50;;;;;;;15.47;44.36;99906.39;25124;1314;3052805;-65
2022/05/02 07:01:57;;;;;;;17.20;7.20;;;;;;;15.55;44.30;99907.23;24980;1318;3051923;-66
2022/05/02 07:04:32;;;;;;;19.30;6.80;;;;;;;15.54;43.97;99906.73;25116;1315;3069653;-66
2022/05/02 07:07:20;;;;;;;15.90;6.40;;;;;;;15.63;43.52;99904.48;25126;1313;3048914;-65
2022/05/02 07:09:59;;;;;;;14.90;6.70;;;;;;;15.82;42.72;99908.77;25110;1313;3055481;-65
2022/05/02 07:12:29;;;;;;;12.60;6.10;;;;;;;15.97;42.19;99906.77;25154;1313;3053019;-67
2022/05/02 07:15:03;;;;;;;12.70;6.20;;;;;;;16.13;41.95;99903.05;25155;1315;3026332;-67
2022/05/02 07:17:42;;;;;;;16.80;6.50;;;;;;;16.27;41.52;99906.73;25142;1313;3026291;-65
2022/05/02 07:20:36;;;;;;;12.80;5.90;;;;;;;16.34;41.03;99904.06;25148;1313;3056008;-66
2022/05/02 07:23:25;;;;;;;15.40;6.30;;;;;;;16.45;39.82;99905.53;25144;1313;3053446;-68
2022/05/02 07:26:07;;;;;;;12.40;6.30;;;;;;;16.51;39.23;99907.21;25149;1313;3071322;-67
2022/05/02 07:28:44;;;;;;;13.00;4.90;;;;;;;16.65;38.61;99907.20;25130;1313;3051530;-66
2022/05/02 07:31:19;;;;;;;13.40;5.70;;;;;;;16.87;38.42;99905.42;25124;1313;3053114;-64
2022/05/02 07:33:52;;;;;;;14.80;5.30;;;;;;;17.11;38.16;99905.67;25146;1315;3052631;-69
2022/05/02 07:36:23;;;;;;;13.80;5.30;;;;;;;17.18;37.92;99907.21;25117;1315;3026437;-67
2022/05/02 07:38:58;;;;;;;13.20;5.50;;;;;;;17.23;37.88;99906.27;25110;1315;3026641;-66
2022/05/02 07:41:28;;;;;;;15.60;5.50;;;;;;;17.22;37.87;99905.44;25131;1315;3053479;-68
2022/05/02 07:44:03;;;;;;;12.30;4.70;;;;;;;17.26;37.53;99901.02;25140;1315;3026800;-69
2022/05/02 07:46:37;;;;;;;11.20;5.20;;;;;;;17.22;37.18;99901.08;25111;1313;3052930;-66
2022/05/02 07:49:07;;;;;;;8.40;4.50;;;;;;;17.16;37.05;99900.13;25130;1315;3053239;-66
2022/05/02 07:51:43;;;;;;;12.30;4.90;;;;;;;17.09;37.06;99901.01;25123;1315;3028722;-67
2022/05/02 07:54:19;;;;;;;13.20;4.10;;;;;;;17.15;36.62;99899.66;25170;1313;3069127;-66
2022/05/02 07:56:49;;;;;;;12.60;4.70;;;;;;;17.12;35.65;99896.92;25098;1315;3048317;-67
2022/05/02 07:59:24;;;;;;;11.10;4.30;;;;;;;16.99;35.68;99894.09;25158;1316;3028614;-68
2022/05/02 08:01:53;;;;;;;13.10;5.00;;;;;;;16.93;35.96;99896.27;25156;1313;3052967;-65
2022/05/02 08:04:23;;;;;;;7.60;3.90;;;;;;;16.80;35.95;99890.05;25171;1315;3026615;-67
2022/05/02 08:07:11;;;;;;;8.80;4.30;;;;;;;16.80;35.75;99892.37;25161;1313;3054749;-67
2022/05/02 08:10:00;;;;;;;8.50;4.20;;;;;;;16.77;35.94;99891.70;25149;1314;3052490;-67
2022/05/02 08:12:39;;;;;;;11.60;3.20;;;;;;;16.79;35.53;99890.33;25139;1313;3057857;-65
2022/05/02 08:15:27;;;;;;;9.20;3.50;;;;;;;16.80;34.74;99885.80;25139;1315;3050679;-69
2022/05/02 08:18:08;;;;;;;8.60;3.10;;;;;;;16.82;34.25;99882.28;25117;1313;3052344;-65
2022/05/02 08:21:03;;;;;;;10.70;3.50;;;;;;;17.00;33.77;99876.30;25129;1315;3050781;-64
2022/05/02 08:27:16;;;;;;;9.70;3.40;;;;;;;16.98;33.57;99875.39;25113;1315;3051341;-65
2022/05/02 08:29:54;;;;;;;7.80;3.50;;;;;;;16.80;33.87;99875.23;25116;1315;3054444;-68
2022/05/02 08:32:26;;;;;;;9.40;3.50;;;;;;;16.86;34.18;99870.80;25119;1315;3054018;-66
2022/05/02 08:35:12;;;;;;;13.00;4.10;;;;;;;17.01;34.25;99869.98;25116;1313;3027130;-63
2022/05/02 08:37:44;;;;;;;8.40;3.50;;;;;;;17.22;34.39;99870.56;25137;1315;3050180;-66
2022/05/02 08:40:42;;;;;;;9.10;4.30;;;;;;;17.36;34.14;99867.03;25110;1313;3026241;-69
2022/05/02 08:43:49;;;;;;;12.70;4.20;;;;;;;17.61;33.82;99865.83;25112;1313;3051859;-67
2022/05/02 08:46:24;;;;;;;7.80;3.50;;;;;;;17.76;32.56;99856.17;25140;1313;3068901;-68
2022/05/02 08:49:33;;;;;;;9.30;4.10;;;;;;;17.78;32.74;99858.55;25116;1315;3049566;-68
2022/05/02 08:52:30;;;;;;;9.70;4.30;;;;;;;17.96;32.79;99857.41;25143;1313;3056708;-70
2022/05/02 08:55:27;;;;;;;9.30;4.00;;;;;;;18.09;32.71;99855.61;25151;1313;3052496;-68
2022/05/02 08:58:25;;;;;;;10.50;4.20;;;;;;;18.27;32.43;99855.29;25097;1313;3056706;-67
2022/05/02 09:01:07;;;;;;;9.70;4.00;;;;;;;18.48;32.04;99844.42;25165;1315;3049267;-69
2022/05/02 09:03:55;;;;;;;11.90;4.30;;;;;;;18.66;31.33;99839.48;25206;1313;3056395;-69
2022/05/02 09:07:02;;;;;;;6.50;3.50;;;;;;;18.86;30.58;99839.45;25916;1315;3051490;-68
2022/05/02 09:09:57;;;;;;;11.50;3.70;;;;;;;19.10;30.31;99834.83;25719;1319;3069226;-66
2022/05/02 09:12:50;;;;;;;8.80;3.10;;;;;;;19.06;30.42;99835.20;25545;1315;3048779;-69
2022/05/02 09:15:57;;;;;;;3.70;2.60;;;;;;;18.99;30.18;99830.02;25152;1315;3052437;-69
2022/05/02 09:18:46;;;;;;;7.50;2.20;;;;;;;18.90;29.32;99827.09;25158;1315;3055127;-70
2022/05/02 09:21:40;;;;;;;6.20;2.20;;;;;;;19.01;29.48;99819.71;25155;1315;3060272;-70
2022/05/02 09:24:28;;;;;;;5.60;2.20;;;;;;;18.80;29.99;99818.49;25125;1315;3050643;-69
2022/05/02 09:27:26;;;;;;;5.80;2.30;;;;;;;18.83;29.73;99817.41;25128;1315;3053513;-68
2022/05/02 09:29:58;;;;;;;9.40;2.30;;;;;;;19.12;29.85;99811.31;25046;1315;3053820;-70
2022/05/02 09:32:38;;;;;;;5.30;2.90;;;;;;;19.44;29.42;99814.55;25141;1315;3026223;-70
2022/05/02 09:35:08;;;;;;;6.30;2.80;;;;;;;19.54;29.22;99809.02;25136;1315;3052359;-68
2022/05/02 09:37:39;;;;;;;9.10;3.00;;;;;;;19.18;29.36;99805.61;25082;1318;3029838;-70
2022/05/02 09:40:12;;;;;;;7.20;3.50;;;;;;;19.10;30.33;99805.00;25192;1315;3029900;-69
2022/05/02 09:42:57;;;;;;;7.50;3.10;;;;;;;19.26;30.12;99801.80;25105;1315;3056600;-68
2022/05/02 09:52:16;;;;;;;7.70;4.10;;;;;;;19.61;29.28;99792.89;25171;1315;3051276;-69
2022/05/02 09:58:32;;;;;;;8.30;3.40;;;;;;;19.83;29.62;99785.70;25105;1313;3048160;-70
2022/05/02 10:01:21;;;;;;;12.90;3.40;;;;;;;19.74;29.80;99785.52;25185;1315;3051963;-69
2022/05/02 10:04:28;;;;;;;7.70;3.60;;;;;;;19.78;29.71;99779.45;25158;1315;3055329;-70
2022/05/02 10:07:10;;;;;;;6.20;3.30;;;;;;;19.77;29.12;99777.89;25145;1315;3055905;-69
2022/05/02 10:10:03;;;;;;;8.90;3.20;;;;;;;19.84;29.17;99772.86;25152;1315;3053029;-70
2022/05/02 10:12:38;;;;;;;6.20;2.90;;;;;;;19.97;29.23;99768.23;25166;1315;3055690;-72
2022/05/02 10:15:32;;;;;;;6.60;2.70;;;;;;;19.98;28.15;99767.98;25108;1315;3051899;-67
2022/05/02 10:18:21;;;;;;;6.70;3.00;;;;;;;19.92;28.19;99762.33;25116;1315;3071595;-70
2022/05/02 10:20:59;;;;;;;6.70;2.60;;;;;;;20.04;27.79;99763.62;25144;1315;3052180;-70
2022/05/02 10:23:46;;;;;;;6.80;2.90;;;;;;;20.23;25.93;99763.95;25217;1315;3052978;-70
2022/05/02 10:26:24;;;;;;;5.20;3.10;;;;;;;20.39;26.36;99759.73;25121;1315;3053203;-70
2022/05/02 10:29:13;;;;;;;6.30;3.50;;;;;;;20.58;26.59;99756.90;25183;1313;3056375;-71
2022/05/02 10:31:42;;;;;;;8.90;4.50;;;;;;;20.74;28.09;99757.76;25147;1315;3052813;-68
2022/05/02 10:34:11;;;;;;;12.10;3.50;;;;;;;20.89;26.94;99754.16;25101;1317;3026586;-73
2022/05/02 10:36:41;;;;;;;13.00;3.40;;;;;;;20.93;25.95;99751.63;25160;1314;3056879;-71
2022/05/02 10:39:40;;;;;;;4.90;3.20;;;;;;;20.94;24.74;99750.16;25134;1315;3026298;-71
2022/05/02 10:42:11;;;;;;;6.30;3.40;;;;;;;21.00;25.20;99747.95;25110;1315;3055418;-71
2022/05/02 10:45:03;;;;;;;8.70;3.60;;;;;;;21.13;25.53;99745.95;25119;1317;3028105;-69
2022/05/02 10:47:54;;;;;;;7.50;3.90;;;;;;;21.39;25.08;99739.75;25166;1315;3071093;-69
2022/05/02 10:50:28;;;;;;;8.90;3.90;;;;;;;21.44;24.68;99742.98;25125;1315;3051499;-69
2022/05/02 10:53:16;;;;;;;;;;;;;;;21.12;24.92;99741.98;25153;1313;3053472;-70
2022/05/02 10:55:51;;;;;;;9.00;3.60;;;;;;;20.57;25.35;99739.88;25128;1314;3055624;-71
2022/05/02 10:58:20;;;;;;;9.70;3.30;;;;;;;20.21;25.93;99742.09;25159;1313;3059010;-71
2022/05/02 11:01:07;;;;;;;9.00;3.90;;;;;;;20.20;25.95;99742.56;25112;1315;3028108;-69
2022/05/02 11:03:46;;;;;;;8.10;3.40;;;;;;;20.22;26.32;99740.13;25123;1314;3055410;-71
2022/05/02 11:06:21;;;;;;;6.50;3.60;;;;;;;20.11;26.52;99738.77;25110;1314;3056839;-71
2022/05/02 11:08:53;;;;;;;8.00;3.90;;;;;;;19.97;27.10;99740.50;25159;1315;3049613;-70
2022/05/02 11:11:35;;;;;;;10.70;4.20;;;;;;;19.90;27.60;99739.94;25129;1315;3055778;-71
2022/05/02 11:14:26;;;;;;;7.50;3.90;;;;;;;19.98;27.18;99740.27;25160;1315;3054001;-69
2022/05/02 11:17:21;;;;;;;9.10;3.70;;;;;;;19.95;27.02;99732.70;25110;1313;3071244;-70
2022/05/02 11:23:07;;;;;;;10.60;4.30;;;;;;;19.69;27.66;99730.11;25160;1315;3054590;-69
2022/05/02 11:25:39;;;;;;;8.90;4.20;;;;;;;19.59;27.97;99730.38;25122;1317;3053667;-71
2022/05/02 11:28:11;;;;;;;13.00;4.30;;;;;;;19.52;27.65;99729.09;25173;1314;3026517;-70
2022/05/02 11:30:44;;;;;;;11.80;4.50;;;;;;;19.37;27.65;99723.05;25159;1313;3026453;-69
2022/05/02 11:33:25;;;;;;;13.20;4.80;;;;;;;19.36;27.94;99723.69;25127;1315;3027621;-69
2022/05/02 11:36:00;;;;;;;10.80;4.40;;;;;;;19.27;27.77;99723.21;25174;1315;3053774;-69
2022/05/02 11:38:34;;;;;;;10.70;5.10;;;;;;;19.24;28.19;99720.13;25154;1315;3068431;-71
2022/05/02 11:41:16;;;;;;;;;;;;;;;19.16;27.97;99718.01;25206;1315;3049609;-69
2022/05/02 11:43:46;;;;;;;10.80;3.90;;;;;;;19.02;28.04;99718.23;25098;1315;3054783;-69
2022/05/02 11:46:18;;;;;;;6.10;3.50;;;;;;;19.04;28.64;99710.23;25132;1315;3026735;-69
2022/05/02 11:48:47;;;;;;;8.50;3.80;;;;;;;19.15;28.02;99714.58;25153;1315;3026743;-70
2022/05/02 11:51:28;;;;;;;9.50;3.60;;;;;;;19.21;27.56;99715.85;25156;1315;3026799;-69
2022/05/02 11:53:57;;;;;;;8.60;3.70;;;;;;;19.18;27.99;99720.67;25133;1315;3052905;-71
2022/05/02 11:56:32;;;;;;;8.70;4.10;;;;;;;19.13;28.39;99720.59;25202;1315;3026884;-68
2022/05/02 11:59:04;;;;;;;12.50;4.10;;;;;;;19.07;28.38;99715.89;25126;1315;3049428;-68
2022/05/02 12:01:37;;;;;;;8.60;3.60;;;;;;;19.05;28.21;99719.42;25187;1315;3053678;-69
2022/05/02 12:04:07;;;;;;;8.00;3.80;;;;;;;18.93;27.35;99712.85;25137;1315;3026668;-70
2022/05/02 12:06:42;;;;;;;11.60;3.80;;;;;;;18.63;27.54;99711.77;25104;1315;3026430;-69
2022/05/02 12:09:21;;;;;;;7.40;3.30;;;;;;;18.83;27.02;99709.84;25105;1315;3052236;-70
2022/05/02 12:11:53;;;;;;;14.60;3.80;;;;;;;18.90;27.16;99708.50;25087;1315;3055410;-67
2022/05/02 12:14:24;;;;;;;10.80;4.20;;;;;;;19.15;27.73;99706.61;25188;1315;3026352;-69
2022/05/02 12:17:07;;;;;;;7.90;4.10;;;;;;;19.37;27.48;99704.59;25112;1315;3030631;-70
2022/05/02 12:19:39;;;;;;;7.80;3.70;;;;;;;19.49;27.44;99707.54;25100;1315;3050116;-68